sensor_id;sensor_type;location;lat;lon;timestamp;P1;durP1;ratioP1;P2;durP2;ratioP2
11066;SDS011;29763;50.904;5.530;2023-02-28T00:01:20;7.23;;;5.00;;
11066;SDS011;29763;50.904;5.530;2023-02-28T00:03:47;8.53;;;5.33;;
11066;SDS011;29763;50.904;5.530;2023-02-28T00:06:13;8.20;;;5.70;;
11066;SDS011;29763;50.904;5.530;2023-02-28T00:08:38;6.43;;;5.27;;
11066;SDS011;29763;50.904;5.530;2023-02-28T00:11:06;6.70;;;5.43;;
11066;SDS011;29763;50.904;5.530;2023-02-28T00:13:34;9.50;;;5.57;;
11066;SDS011;29763;50.904;5.530;2023-02-28T00:16:03;7.70;;;5.87;;
11066;SDS011;29763;50.904;5.530;2023-02-28T00:18:34;6.00;;;5.40;;
11066;SDS011;29763;50.904;5.530;2023-02-28T00:21:01;7.60;;;5.43;;
11066;SDS011;29763;50.904;5.530;2023-02-28T00:23:27;6.10;;;5.47;;
11066;SDS011;29763;50.904;5.530;2023-02-28T00:25:53;9.30;;;6.07;;
11066;SDS011;29763;50.904;5.530;2023-02-28T00:28:23;8.23;;;5.77;;
11066;SDS011;29763;50.904;5.530;2023-02-28T00:30:49;7.30;;;5.67;;
11066;SDS011;29763;50.904;5.530;2023-02-28T00:33:15;5.77;;;5.10;;
11066;SDS011;29763;50.904;5.530;2023-02-28T00:35:41;8.27;;;5.23;;
11066;SDS011;29763;50.904;5.530;2023-02-28T00:38:07;8.63;;;6.17;;
11066;SDS011;29763;50.904;5.530;2023-02-28T00:40:34;8.87;;;5.83;;
11066;SDS011;29763;50.904;5.530;2023-02-28T00:43:05;7.83;;;5.50;;
11066;SDS011;29763;50.904;5.530;2023-02-28T00:45:30;7.70;;;5.77;;
11066;SDS011;29763;50.904;5.530;2023-02-28T00:47:56;7.27;;;5.80;;
11066;SDS011;29763;50.904;5.530;2023-02-28T00:50:24;6.43;;;5.53;;
11066;SDS011;29763;50.904;5.530;2023-02-28T00:52:53;11.33;;;6.23;;
11066;SDS011;29763;50.904;5.530;2023-02-28T00:55:20;8.63;;;5.97;;
11066;SDS011;29763;50.904;5.530;2023-02-28T00:57:47;8.07;;;5.30;;
11066;SDS011;29763;50.904;5.530;2023-02-28T01:00:13;6.67;;;5.47;;
11066;SDS011;29763;50.904;5.530;2023-02-28T01:02:39;9.77;;;5.80;;
11066;SDS011;29763;50.904;5.530;2023-02-28T01:05:05;7.23;;;5.97;;
11066;SDS011;29763;50.904;5.530;2023-02-28T01:07:32;8.40;;;6.23;;
11066;SDS011;29763;50.904;5.530;2023-02-28T01:09:58;6.40;;;5.70;;
11066;SDS011;29763;50.904;5.530;2023-02-28T01:12:24;8.17;;;6.20;;
11066;SDS011;29763;50.904;5.530;2023-02-28T01:14:50;6.80;;;5.70;;
11066;SDS011;29763;50.904;5.530;2023-02-28T01:17:15;6.60;;;5.90;;
11066;SDS011;29763;50.904;5.530;2023-02-28T01:19:47;7.90;;;6.17;;
11066;SDS011;29763;50.904;5.530;2023-02-28T01:22:12;8.17;;;6.40;;
11066;SDS011;29763;50.904;5.530;2023-02-28T01:24:39;22.50;;;18.23;;
11066;SDS011;29763;50.904;5.530;2023-02-28T01:27:04;63.10;;;40.67;;
11066;SDS011;29763;50.904;5.530;2023-02-28T01:29:30;55.50;;;34.13;;
11066;SDS011;29763;50.904;5.530;2023-02-28T01:31:58;13.53;;;10.37;;
11066;SDS011;29763;50.904;5.530;2023-02-28T01:34:25;10.57;;;8.90;;
11066;SDS011;29763;50.904;5.530;2023-02-28T01:36:50;8.80;;;6.87;;
11066;SDS011;29763;50.904;5.530;2023-02-28T01:39:16;9.60;;;7.03;;
11066;SDS011;29763;50.904;5.530;2023-02-28T01:41:42;9.90;;;7.97;;
11066;SDS011;29763;50.904;5.530;2023-02-28T01:47:18;8.90;;;6.90;;
11066;SDS011;29763;50.904;5.530;2023-02-28T01:49:43;10.70;;;7.20;;
11066;SDS011;29763;50.904;5.530;2023-02-28T01:52:11;10.40;;;7.70;;
11066;SDS011;29763;50.904;5.530;2023-02-28T01:54:43;9.87;;;7.03;;
11066;SDS011;29763;50.904;5.530;2023-02-28T01:57:16;8.97;;;7.00;;
11066;SDS011;29763;50.904;5.530;2023-02-28T02:00:07;7.47;;;6.37;;
11066;SDS011;29763;50.904;5.530;2023-02-28T02:02:38;9.43;;;6.40;;
11066;SDS011;29763;50.904;5.530;2023-02-28T02:07:39;9.87;;;6.67;;
11066;SDS011;29763;50.904;5.530;2023-02-28T02:10:31;8.97;;;6.97;;
11066;SDS011;29763;50.904;5.530;2023-02-28T02:18:57;7.17;;;6.40;;
11066;SDS011;29763;50.904;5.530;2023-02-28T02:24:59;9.30;;;6.30;;
11066;SDS011;29763;50.904;5.530;2023-02-28T02:33:16;9.83;;;7.30;;
11066;SDS011;29763;50.904;5.530;2023-02-28T02:39:10;10.57;;;7.20;;
11066;SDS011;29763;50.904;5.530;2023-02-28T02:41:47;9.37;;;7.47;;
11066;SDS011;29763;50.904;5.530;2023-02-28T02:44:26;8.33;;;7.37;;
11066;SDS011;29763;50.904;5.530;2023-02-28T02:47:15;9.17;;;6.97;;
11066;SDS011;29763;50.904;5.530;2023-02-28T02:49:50;8.53;;;6.80;;
11066;SDS011;29763;50.904;5.530;2023-02-28T02:52:23;8.37;;;6.80;;
11066;SDS011;29763;50.904;5.530;2023-02-28T02:54:58;8.93;;;7.00;;
11066;SDS011;29763;50.904;5.530;2023-02-28T02:57:27;11.67;;;7.87;;
11066;SDS011;29763;50.904;5.530;2023-02-28T02:59:58;9.27;;;6.67;;
11066;SDS011;29763;50.904;5.530;2023-02-28T03:02:26;9.87;;;7.13;;
11066;SDS011;29763;50.904;5.530;2023-02-28T03:04:59;10.50;;;7.10;;
11066;SDS011;29763;50.904;5.530;2023-02-28T03:07:39;9.53;;;7.13;;
11066;SDS011;29763;50.904;5.530;2023-02-28T03:10:25;9.73;;;7.33;;
11066;SDS011;29763;50.904;5.530;2023-02-28T03:13:00;14.20;;;7.80;;
11066;SDS011;29763;50.904;5.530;2023-02-28T03:15:34;14.23;;;9.63;;
11066;SDS011;29763;50.904;5.530;2023-02-28T03:18:15;14.50;;;9.20;;
11066;SDS011;29763;50.904;5.530;2023-02-28T03:26:52;10.03;;;6.90;;
11066;SDS011;29763;50.904;5.530;2023-02-28T03:31:59;8.37;;;6.50;;
11066;SDS011;29763;50.904;5.530;2023-02-28T03:34:41;6.90;;;6.27;;
11066;SDS011;29763;50.904;5.530;2023-02-28T03:37:12;11.77;;;7.30;;
11066;SDS011;29763;50.904;5.530;2023-02-28T03:39:45;7.77;;;6.93;;
11066;SDS011;29763;50.904;5.530;2023-02-28T03:42:29;8.40;;;6.83;;
11066;SDS011;29763;50.904;5.530;2023-02-28T03:45:00;10.33;;;7.00;;
11066;SDS011;29763;50.904;5.530;2023-02-28T03:47:33;8.67;;;6.73;;
11066;SDS011;29763;50.904;5.530;2023-02-28T03:50:11;10.10;;;7.13;;
11066;SDS011;29763;50.904;5.530;2023-02-28T03:52:47;9.23;;;7.00;;
11066;SDS011;29763;50.904;5.530;2023-02-28T03:55:16;9.37;;;7.50;;
11066;SDS011;29763;50.904;5.530;2023-02-28T03:57:47;9.93;;;7.30;;
11066;SDS011;29763;50.904;5.530;2023-02-28T04:00:43;9.23;;;7.17;;
11066;SDS011;29763;50.904;5.530;2023-02-28T04:03:11;11.23;;;7.50;;
11066;SDS011;29763;50.904;5.530;2023-02-28T04:05:53;7.90;;;7.10;;
11066;SDS011;29763;50.904;5.530;2023-02-28T04:08:21;8.03;;;6.57;;
11066;SDS011;29763;50.904;5.530;2023-02-28T04:10:51;9.73;;;7.30;;
11066;SDS011;29763;50.904;5.530;2023-02-28T04:13:30;10.10;;;7.20;;
11066;SDS011;29763;50.904;5.530;2023-02-28T04:15:59;10.37;;;7.50;;
11066;SDS011;29763;50.904;5.530;2023-02-28T04:18:39;9.97;;;7.37;;
11066;SDS011;29763;50.904;5.530;2023-02-28T04:21:06;9.63;;;6.77;;
11066;SDS011;29763;50.904;5.530;2023-02-28T04:23:32;10.30;;;7.57;;
11066;SDS011;29763;50.904;5.530;2023-02-28T04:26:05;10.10;;;7.10;;
11066;SDS011;29763;50.904;5.530;2023-02-28T04:28:32;11.03;;;7.33;;
11066;SDS011;29763;50.904;5.530;2023-02-28T04:31:02;9.30;;;6.83;;
11066;SDS011;29763;50.904;5.530;2023-02-28T04:33:29;10.00;;;7.50;;
11066;SDS011;29763;50.904;5.530;2023-02-28T04:36:02;9.37;;;6.60;;
11066;SDS011;29763;50.904;5.530;2023-02-28T04:38:39;8.97;;;7.13;;
11066;SDS011;29763;50.904;5.530;2023-02-28T04:41:05;8.87;;;7.10;;
11066;SDS011;29763;50.904;5.530;2023-02-28T04:43:31;8.57;;;7.67;;
11066;SDS011;29763;50.904;5.530;2023-02-28T04:45:57;9.23;;;7.00;;
11066;SDS011;29763;50.904;5.530;2023-02-28T04:48:30;8.30;;;7.00;;
11066;SDS011;29763;50.904;5.530;2023-02-28T04:51:01;12.73;;;7.63;;
11066;SDS011;29763;50.904;5.530;2023-02-28T04:53:29;9.80;;;7.13;;
11066;SDS011;29763;50.904;5.530;2023-02-28T04:55:56;9.00;;;7.20;;
11066;SDS011;29763;50.904;5.530;2023-02-28T04:58:22;8.87;;;7.23;;
11066;SDS011;29763;50.904;5.530;2023-02-28T05:00:51;9.23;;;7.07;;
11066;SDS011;29763;50.904;5.530;2023-02-28T05:03:18;9.27;;;6.90;;
11066;SDS011;29763;50.904;5.530;2023-02-28T05:05:45;9.57;;;7.07;;
11066;SDS011;29763;50.904;5.530;2023-02-28T05:08:12;9.67;;;6.93;;
11066;SDS011;29763;50.904;5.530;2023-02-28T05:10:38;8.70;;;7.27;;
11066;SDS011;29763;50.904;5.530;2023-02-28T05:13:06;13.17;;;7.23;;
11066;SDS011;29763;50.904;5.530;2023-02-28T05:15:35;7.63;;;6.83;;
11066;SDS011;29763;50.904;5.530;2023-02-28T05:18:01;8.53;;;6.97;;
11066;SDS011;29763;50.904;5.530;2023-02-28T05:20:26;8.97;;;7.43;;
11066;SDS011;29763;50.904;5.530;2023-02-28T05:22:52;11.23;;;7.20;;
11066;SDS011;29763;50.904;5.530;2023-02-28T05:25:18;8.20;;;6.93;;
11066;SDS011;29763;50.904;5.530;2023-02-28T05:27:47;10.67;;;7.63;;
11066;SDS011;29763;50.904;5.530;2023-02-28T05:30:14;8.83;;;7.83;;
11066;SDS011;29763;50.904;5.530;2023-02-28T05:32:41;8.90;;;8.00;;
11066;SDS011;29763;50.904;5.530;2023-02-28T05:35:08;11.00;;;7.10;;
11066;SDS011;29763;50.904;5.530;2023-02-28T05:37:38;10.70;;;7.70;;
11066;SDS011;29763;50.904;5.530;2023-02-28T05:40:04;10.30;;;8.07;;
11066;SDS011;29763;50.904;5.530;2023-02-28T05:42:35;10.50;;;7.97;;
11066;SDS011;29763;50.904;5.530;2023-02-28T05:45:01;9.07;;;7.30;;
11066;SDS011;29763;50.904;5.530;2023-02-28T05:47:28;10.10;;;8.77;;
11066;SDS011;29763;50.904;5.530;2023-02-28T05:49:54;9.67;;;7.80;;
11066;SDS011;29763;50.904;5.530;2023-02-28T05:52:19;10.13;;;7.67;;
11066;SDS011;29763;50.904;5.530;2023-02-28T05:54:46;9.43;;;7.90;;
11066;SDS011;29763;50.904;5.530;2023-02-28T05:57:13;10.23;;;7.60;;
11066;SDS011;29763;50.904;5.530;2023-02-28T05:59:38;10.03;;;7.80;;
11066;SDS011;29763;50.904;5.530;2023-02-28T06:02:05;10.20;;;7.63;;
11066;SDS011;29763;50.904;5.530;2023-02-28T06:04:35;11.37;;;7.60;;
11066;SDS011;29763;50.904;5.530;2023-02-28T06:07:02;10.63;;;7.40;;
11066;SDS011;29763;50.904;5.530;2023-02-28T06:09:28;9.30;;;7.43;;
11066;SDS011;29763;50.904;5.530;2023-02-28T06:11:59;9.33;;;7.87;;
11066;SDS011;29763;50.904;5.530;2023-02-28T06:14:28;8.63;;;7.57;;
11066;SDS011;29763;50.904;5.530;2023-02-28T06:16:58;9.90;;;7.27;;
11066;SDS011;29763;50.904;5.530;2023-02-28T06:19:25;9.43;;;7.43;;
11066;SDS011;29763;50.904;5.530;2023-02-28T06:21:53;12.17;;;7.90;;
11066;SDS011;29763;50.904;5.530;2023-02-28T06:24:20;9.70;;;8.10;;
11066;SDS011;29763;50.904;5.530;2023-02-28T06:26:48;9.37;;;8.23;;
11066;SDS011;29763;50.904;5.530;2023-02-28T06:29:14;11.20;;;8.30;;
11066;SDS011;29763;50.904;5.530;2023-02-28T06:31:46;13.40;;;10.77;;
11066;SDS011;29763;50.904;5.530;2023-02-28T06:34:12;32.47;;;20.53;;
11066;SDS011;29763;50.904;5.530;2023-02-28T06:36:39;17.37;;;11.60;;
11066;SDS011;29763;50.904;5.530;2023-02-28T06:39:05;14.43;;;10.33;;
11066;SDS011;29763;50.904;5.530;2023-02-28T06:41:33;9.47;;;7.23;;
11066;SDS011;29763;50.904;5.530;2023-02-28T06:44:05;11.13;;;7.60;;
11066;SDS011;29763;50.904;5.530;2023-02-28T06:46:39;11.53;;;8.77;;
11066;SDS011;29763;50.904;5.530;2023-02-28T06:49:06;15.70;;;8.60;;
11066;SDS011;29763;50.904;5.530;2023-02-28T06:51:35;9.93;;;8.27;;
11066;SDS011;29763;50.904;5.530;2023-02-28T06:54:20;12.13;;;8.67;;
11066;SDS011;29763;50.904;5.530;2023-02-28T06:56:48;15.07;;;9.30;;
11066;SDS011;29763;50.904;5.530;2023-02-28T06:59:13;15.53;;;12.60;;
11066;SDS011;29763;50.904;5.530;2023-02-28T07:01:39;20.80;;;13.77;;
11066;SDS011;29763;50.904;5.530;2023-02-28T07:04:05;32.37;;;21.27;;
11066;SDS011;29763;50.904;5.530;2023-02-28T07:06:32;36.67;;;22.27;;
11066;SDS011;29763;50.904;5.530;2023-02-28T07:08:58;16.70;;;11.07;;
11066;SDS011;29763;50.904;5.530;2023-02-28T07:11:26;19.63;;;12.73;;
11066;SDS011;29763;50.904;5.530;2023-02-28T07:13:55;18.87;;;12.00;;
11066;SDS011;29763;50.904;5.530;2023-02-28T07:16:22;88.07;;;44.03;;
11066;SDS011;29763;50.904;5.530;2023-02-28T07:18:51;23.90;;;13.93;;
11066;SDS011;29763;50.904;5.530;2023-02-28T07:21:20;43.37;;;22.90;;
11066;SDS011;29763;50.904;5.530;2023-02-28T07:23:46;33.10;;;17.90;;
11066;SDS011;29763;50.904;5.530;2023-02-28T07:26:14;23.07;;;13.33;;
11066;SDS011;29763;50.904;5.530;2023-02-28T07:28:42;15.50;;;10.00;;
11066;SDS011;29763;50.904;5.530;2023-02-28T07:31:09;21.93;;;13.97;;
11066;SDS011;29763;50.904;5.530;2023-02-28T07:33:36;16.17;;;10.27;;
11066;SDS011;29763;50.904;5.530;2023-02-28T07:36:07;25.57;;;15.47;;
11066;SDS011;29763;50.904;5.530;2023-02-28T07:38:39;12.73;;;8.67;;
11066;SDS011;29763;50.904;5.530;2023-02-28T07:41:04;11.83;;;7.90;;
11066;SDS011;29763;50.904;5.530;2023-02-28T07:43:31;10.17;;;8.30;;
11066;SDS011;29763;50.904;5.530;2023-02-28T07:46:08;12.53;;;9.50;;
11066;SDS011;29763;50.904;5.530;2023-02-28T07:49:13;7.47;;;5.97;;
11066;SDS011;29763;50.904;5.530;2023-02-28T07:51:41;9.13;;;7.33;;
11066;SDS011;29763;50.904;5.530;2023-02-28T07:54:07;7.87;;;5.80;;
11066;SDS011;29763;50.904;5.530;2023-02-28T07:56:33;7.63;;;6.70;;
11066;SDS011;29763;50.904;5.530;2023-02-28T07:58:59;8.33;;;6.60;;
11066;SDS011;29763;50.904;5.530;2023-02-28T08:01:26;7.83;;;5.90;;
11066;SDS011;29763;50.904;5.530;2023-02-28T08:03:52;7.50;;;5.47;;
11066;SDS011;29763;50.904;5.530;2023-02-28T08:06:21;6.77;;;5.93;;
11066;SDS011;29763;50.904;5.530;2023-02-28T08:08:48;7.47;;;5.47;;
11066;SDS011;29763;50.904;5.530;2023-02-28T08:11:15;7.50;;;5.90;;
11066;SDS011;29763;50.904;5.530;2023-02-28T08:13:43;7.50;;;5.67;;
11066;SDS011;29763;50.904;5.530;2023-02-28T08:16:09;7.83;;;5.30;;
11066;SDS011;29763;50.904;5.530;2023-02-28T08:18:35;10.03;;;5.20;;
11066;SDS011;29763;50.904;5.530;2023-02-28T08:21:10;5.80;;;5.13;;
11066;SDS011;29763;50.904;5.530;2023-02-28T08:23:37;7.10;;;5.00;;
11066;SDS011;29763;50.904;5.530;2023-02-28T08:26:04;6.30;;;5.00;;
11066;SDS011;29763;50.904;5.530;2023-02-28T08:28:30;6.77;;;5.13;;
11066;SDS011;29763;50.904;5.530;2023-02-28T08:30:56;6.60;;;5.00;;
11066;SDS011;29763;50.904;5.530;2023-02-28T08:33:22;6.90;;;5.03;;
11066;SDS011;29763;50.904;5.530;2023-02-28T08:35:48;8.90;;;4.73;;
11066;SDS011;29763;50.904;5.530;2023-02-28T08:38:18;6.43;;;5.10;;
11066;SDS011;29763;50.904;5.530;2023-02-28T08:40:44;7.40;;;4.63;;
11066;SDS011;29763;50.904;5.530;2023-02-28T08:43:10;6.13;;;4.53;;
11066;SDS011;29763;50.904;5.530;2023-02-28T08:45:35;5.30;;;4.57;;
11066;SDS011;29763;50.904;5.530;2023-02-28T08:48:01;6.23;;;4.70;;
11066;SDS011;29763;50.904;5.530;2023-02-28T08:50:27;5.27;;;4.77;;
11066;SDS011;29763;50.904;5.530;2023-02-28T08:52:54;7.47;;;4.40;;
11066;SDS011;29763;50.904;5.530;2023-02-28T08:55:20;5.07;;;4.10;;
11066;SDS011;29763;50.904;5.530;2023-02-28T08:57:46;5.57;;;4.10;;
11066;SDS011;29763;50.904;5.530;2023-02-28T09:00:12;4.90;;;4.33;;
11066;SDS011;29763;50.904;5.530;2023-02-28T09:02:39;4.30;;;3.90;;
11066;SDS011;29763;50.904;5.530;2023-02-28T09:05:05;5.03;;;4.30;;
11066;SDS011;29763;50.904;5.530;2023-02-28T09:07:31;5.70;;;4.43;;
11066;SDS011;29763;50.904;5.530;2023-02-28T09:09:57;6.00;;;4.20;;
11066;SDS011;29763;50.904;5.530;2023-02-28T09:12:26;4.00;;;3.70;;
11066;SDS011;29763;50.904;5.530;2023-02-28T09:14:57;6.80;;;4.20;;
11066;SDS011;29763;50.904;5.530;2023-02-28T09:17:24;5.20;;;3.93;;
11066;SDS011;29763;50.904;5.530;2023-02-28T09:19:50;4.93;;;3.90;;
11066;SDS011;29763;50.904;5.530;2023-02-28T09:22:20;4.93;;;3.70;;
11066;SDS011;29763;50.904;5.530;2023-02-28T09:24:46;3.53;;;3.23;;
11066;SDS011;29763;50.904;5.530;2023-02-28T09:27:12;11.30;;;4.13;;
11066;SDS011;29763;50.904;5.530;2023-02-28T09:29:38;3.67;;;3.37;;
11066;SDS011;29763;50.904;5.530;2023-02-28T09:32:04;4.60;;;3.47;;
11066;SDS011;29763;50.904;5.530;2023-02-28T09:34:30;4.13;;;3.43;;
11066;SDS011;29763;50.904;5.530;2023-02-28T09:37:01;3.80;;;3.40;;
11066;SDS011;29763;50.904;5.530;2023-02-28T09:39:27;6.23;;;3.57;;
11066;SDS011;29763;50.904;5.530;2023-02-28T09:41:54;7.37;;;3.73;;
11066;SDS011;29763;50.904;5.530;2023-02-28T09:49:53;4.37;;;3.40;;
11066;SDS011;29763;50.904;5.530;2023-02-28T09:52:30;4.50;;;3.20;;
11066;SDS011;29763;50.904;5.530;2023-02-28T09:57:42;3.80;;;3.23;;
11066;SDS011;29763;50.904;5.530;2023-02-28T10:11:23;3.00;;;2.80;;
11066;SDS011;29763;50.904;5.530;2023-02-28T10:16:41;3.73;;;2.83;;
11066;SDS011;29763;50.904;5.530;2023-02-28T10:24:59;3.30;;;2.70;;
11066;SDS011;29763;50.904;5.530;2023-02-28T10:27:31;3.87;;;2.43;;
11066;SDS011;29763;50.904;5.530;2023-02-28T10:29:59;2.90;;;2.70;;
11066;SDS011;29763;50.904;5.530;2023-02-28T10:32:33;4.00;;;2.90;;
11066;SDS011;29763;50.904;5.530;2023-02-28T10:35:06;2.67;;;2.47;;
11066;SDS011;29763;50.904;5.530;2023-02-28T10:37:32;2.90;;;2.60;;
11066;SDS011;29763;50.904;5.530;2023-02-28T10:42:59;3.27;;;2.60;;
11066;SDS011;29763;50.904;5.530;2023-02-28T10:45:28;2.70;;;2.50;;
11066;SDS011;29763;50.904;5.530;2023-02-28T10:50:34;2.70;;;2.40;;
11066;SDS011;29763;50.904;5.530;2023-02-28T10:59:02;2.80;;;2.30;;
11066;SDS011;29763;50.904;5.530;2023-02-28T11:01:47;2.20;;;2.00;;
11066;SDS011;29763;50.904;5.530;2023-02-28T11:09:51;2.43;;;2.20;;
11066;SDS011;29763;50.904;5.530;2023-02-28T11:14:47;2.50;;;2.30;;
11066;SDS011;29763;50.904;5.530;2023-02-28T11:17:23;2.37;;;2.20;;
11066;SDS011;29763;50.904;5.530;2023-02-28T11:19:52;2.20;;;2.10;;
11066;SDS011;29763;50.904;5.530;2023-02-28T11:22:24;2.27;;;2.03;;
11066;SDS011;29763;50.904;5.530;2023-02-28T11:24:54;2.40;;;2.20;;
11066;SDS011;29763;50.904;5.530;2023-02-28T11:30:28;2.27;;;2.07;;
11066;SDS011;29763;50.904;5.530;2023-02-28T11:32:54;2.10;;;1.97;;
11066;SDS011;29763;50.904;5.530;2023-02-28T11:35:27;2.60;;;2.10;;
11066;SDS011;29763;50.904;5.530;2023-02-28T11:38:04;2.33;;;2.10;;
11066;SDS011;29763;50.904;5.530;2023-02-28T11:47:14;2.53;;;2.30;;
11066;SDS011;29763;50.904;5.530;2023-02-28T11:49:30;2.40;;;2.20;;
11066;SDS011;29763;50.904;5.530;2023-02-28T12:20:17;2.50;;;2.30;;
11066;SDS011;29763;50.904;5.530;2023-02-28T12:25:53;3.37;;;2.43;;
11066;SDS011;29763;50.904;5.530;2023-02-28T12:28:43;2.70;;;2.50;;
11066;SDS011;29763;50.904;5.530;2023-02-28T12:32:18;2.57;;;2.37;;
11066;SDS011;29763;50.904;5.530;2023-02-28T12:34:41;2.70;;;2.50;;
11066;SDS011;29763;50.904;5.530;2023-02-28T12:37:15;2.70;;;2.50;;
11066;SDS011;29763;50.904;5.530;2023-02-28T12:39:48;3.40;;;2.60;;
11066;SDS011;29763;50.904;5.530;2023-02-28T12:42:29;2.97;;;2.63;;
11066;SDS011;29763;50.904;5.530;2023-02-28T12:45:01;3.15;;;2.85;;
11066;SDS011;29763;50.904;5.530;2023-02-28T12:47:42;3.10;;;2.90;;
11066;SDS011;29763;50.904;5.530;2023-02-28T12:50:13;3.90;;;2.80;;
11066;SDS011;29763;50.904;5.530;2023-02-28T13:01:29;3.43;;;3.03;;
11066;SDS011;29763;50.904;5.530;2023-02-28T13:04:14;4.10;;;3.40;;
11066;SDS011;29763;50.904;5.530;2023-02-28T13:10:04;5.13;;;2.63;;
11066;SDS011;29763;50.904;5.530;2023-02-28T13:12:34;3.30;;;3.00;;
11066;SDS011;29763;50.904;5.530;2023-02-28T13:15:08;3.97;;;2.97;;
11066;SDS011;29763;50.904;5.530;2023-02-28T13:17:53;5.00;;;3.57;;
11066;SDS011;29763;50.904;5.530;2023-02-28T13:20:37;4.50;;;3.23;;
11066;SDS011;29763;50.904;5.530;2023-02-28T13:24:36;3.33;;;3.03;;
11066;SDS011;29763;50.904;5.530;2023-02-28T13:26:19;3.23;;;3.03;;
11066;SDS011;29763;50.904;5.530;2023-02-28T13:34:37;3.80;;;3.47;;
11066;SDS011;29763;50.904;5.530;2023-02-28T13:40:30;4.15;;;3.75;;
11066;SDS011;29763;50.904;5.530;2023-02-28T13:43:08;3.70;;;3.40;;
11066;SDS011;29763;50.904;5.530;2023-02-28T13:45:34;4.13;;;3.20;;
11066;SDS011;29763;50.904;5.530;2023-02-28T13:48:18;5.13;;;4.73;;
11066;SDS011;29763;50.904;5.530;2023-02-28T13:50:55;3.63;;;3.33;;
11066;SDS011;29763;50.904;5.530;2023-02-28T13:58:54;4.30;;;3.90;;
11066;SDS011;29763;50.904;5.530;2023-02-28T14:07:08;3.90;;;3.20;;
11066;SDS011;29763;50.904;5.530;2023-02-28T14:09:46;3.38;;;3.08;;
11066;SDS011;29763;50.904;5.530;2023-02-28T14:18:03;5.40;;;3.63;;
11066;SDS011;29763;50.904;5.530;2023-02-28T14:20:43;3.50;;;3.20;;
11066;SDS011;29763;50.904;5.530;2023-02-28T14:31:39;4.20;;;3.07;;
11066;SDS011;29763;50.904;5.530;2023-02-28T14:37:09;4.37;;;3.10;;
11066;SDS011;29763;50.904;5.530;2023-02-28T14:39:41;4.07;;;3.10;;
11066;SDS011;29763;50.904;5.530;2023-02-28T14:45:21;3.20;;;2.90;;
11066;SDS011;29763;50.904;5.530;2023-02-28T14:47:48;3.17;;;2.88;;
11066;SDS011;29763;50.904;5.530;2023-02-28T14:50:20;3.20;;;2.90;;
11066;SDS011;29763;50.904;5.530;2023-02-28T14:52:48;3.20;;;2.83;;
11066;SDS011;29763;50.904;5.530;2023-02-28T14:55:20;3.58;;;3.28;;
11066;SDS011;29763;50.904;5.530;2023-02-28T14:58:00;3.90;;;2.90;;
11066;SDS011;29763;50.904;5.530;2023-02-28T15:00:30;4.53;;;3.20;;
11066;SDS011;29763;50.904;5.530;2023-02-28T15:02:58;4.30;;;3.20;;
11066;SDS011;29763;50.904;5.530;2023-02-28T15:05:37;3.50;;;3.20;;
11066;SDS011;29763;50.904;5.530;2023-02-28T15:11:13;3.57;;;3.20;;
11066;SDS011;29763;50.904;5.530;2023-02-28T15:13:42;5.03;;;3.20;;
11066;SDS011;29763;50.904;5.530;2023-02-28T15:19:34;4.00;;;3.60;;
11066;SDS011;29763;50.904;5.530;2023-02-28T15:22:06;4.47;;;3.70;;
11066;SDS011;29763;50.904;5.530;2023-02-28T15:24:42;4.10;;;3.30;;
11066;SDS011;29763;50.904;5.530;2023-02-28T15:27:25;4.63;;;4.13;;
11066;SDS011;29763;50.904;5.530;2023-02-28T15:29:56;4.60;;;3.37;;
11066;SDS011;29763;50.904;5.530;2023-02-28T15:32:34;3.70;;;3.40;;
11066;SDS011;29763;50.904;5.530;2023-02-28T15:38:00;4.60;;;3.30;;
11066;SDS011;29763;50.904;5.530;2023-02-28T15:40:46;3.83;;;3.00;;
11066;SDS011;29763;50.904;5.530;2023-02-28T15:48:36;5.27;;;3.33;;
11066;SDS011;29763;50.904;5.530;2023-02-28T15:54:11;5.10;;;3.63;;
11066;SDS011;29763;50.904;5.530;2023-02-28T15:56:43;4.20;;;3.40;;
11066;SDS011;29763;50.904;5.530;2023-02-28T15:59:15;3.70;;;3.40;;
11066;SDS011;29763;50.904;5.530;2023-02-28T16:01:46;4.07;;;3.57;;
11066;SDS011;29763;50.904;5.530;2023-02-28T16:04:26;5.80;;;3.23;;
11066;SDS011;29763;50.904;5.530;2023-02-28T16:09:25;5.05;;;4.55;;
11066;SDS011;29763;50.904;5.530;2023-02-28T16:11:53;3.60;;;3.20;;
11066;SDS011;29763;50.904;5.530;2023-02-28T16:14:23;6.97;;;6.20;;
11066;SDS011;29763;50.904;5.530;2023-02-28T16:16:57;6.03;;;3.73;;
11066;SDS011;29763;50.904;5.530;2023-02-28T16:19:28;5.30;;;3.73;;
11066;SDS011;29763;50.904;5.530;2023-02-28T16:21:54;5.87;;;5.27;;
11066;SDS011;29763;50.904;5.530;2023-02-28T16:24:20;5.23;;;4.63;;
11066;SDS011;29763;50.904;5.530;2023-02-28T16:26:48;3.83;;;3.40;;
11066;SDS011;29763;50.904;5.530;2023-02-28T16:29:19;7.33;;;6.17;;
11066;SDS011;29763;50.904;5.530;2023-02-28T16:31:55;4.90;;;4.37;;
11066;SDS011;29763;50.904;5.530;2023-02-28T16:34:21;5.20;;;4.70;;
11066;SDS011;29763;50.904;5.530;2023-02-28T16:36:50;4.30;;;3.90;;
11066;SDS011;29763;50.904;5.530;2023-02-28T16:39:17;6.57;;;5.47;;
11066;SDS011;29763;50.904;5.530;2023-02-28T16:41:48;5.67;;;4.07;;
11066;SDS011;29763;50.904;5.530;2023-02-28T16:44:24;5.60;;;3.53;;
11066;SDS011;29763;50.904;5.530;2023-02-28T16:47:02;4.53;;;4.00;;
11066;SDS011;29763;50.904;5.530;2023-02-28T16:49:29;5.57;;;4.03;;
11066;SDS011;29763;50.904;5.530;2023-02-28T16:51:56;5.10;;;4.60;;
11066;SDS011;29763;50.904;5.530;2023-02-28T16:54:23;4.20;;;3.73;;
11066;SDS011;29763;50.904;5.530;2023-02-28T16:56:49;7.53;;;4.83;;
11066;SDS011;29763;50.904;5.530;2023-02-28T16:59:17;4.30;;;3.50;;
11066;SDS011;29763;50.904;5.530;2023-02-28T17:01:48;4.20;;;3.57;;
11066;SDS011;29763;50.904;5.530;2023-02-28T17:04:14;4.23;;;3.60;;
11066;SDS011;29763;50.904;5.530;2023-02-28T17:06:40;4.30;;;3.57;;
11066;SDS011;29763;50.904;5.530;2023-02-28T17:09:18;5.77;;;4.20;;
11066;SDS011;29763;50.904;5.530;2023-02-28T17:11:47;4.10;;;3.80;;
11066;SDS011;29763;50.904;5.530;2023-02-28T17:14:15;6.13;;;3.87;;
11066;SDS011;29763;50.904;5.530;2023-02-28T17:16:41;3.80;;;3.50;;
11066;SDS011;29763;50.904;5.530;2023-02-28T17:19:10;3.80;;;3.40;;
11066;SDS011;29763;50.904;5.530;2023-02-28T17:21:38;4.70;;;3.43;;
11066;SDS011;29763;50.904;5.530;2023-02-28T17:24:04;3.97;;;3.57;;
11066;SDS011;29763;50.904;5.530;2023-02-28T17:26:30;4.33;;;3.60;;
11066;SDS011;29763;50.904;5.530;2023-02-28T17:28:56;5.33;;;3.70;;
11066;SDS011;29763;50.904;5.530;2023-02-28T17:31:23;3.23;;;2.93;;
11066;SDS011;29763;50.904;5.530;2023-02-28T17:33:49;3.87;;;3.53;;
11066;SDS011;29763;50.904;5.530;2023-02-28T17:36:26;5.20;;;3.90;;
11066;SDS011;29763;50.904;5.530;2023-02-28T17:38:53;3.83;;;3.50;;
11066;SDS011;29763;50.904;5.530;2023-02-28T17:41:23;4.77;;;3.87;;
11066;SDS011;29763;50.904;5.530;2023-02-28T17:43:51;3.80;;;3.50;;
11066;SDS011;29763;50.904;5.530;2023-02-28T17:46:20;4.73;;;3.47;;
11066;SDS011;29763;50.904;5.530;2023-02-28T17:48:47;4.20;;;3.53;;
11066;SDS011;29763;50.904;5.530;2023-02-28T17:51:14;3.60;;;3.27;;
11066;SDS011;29763;50.904;5.530;2023-02-28T17:53:42;3.63;;;3.10;;
11066;SDS011;29763;50.904;5.530;2023-02-28T17:56:11;3.80;;;3.40;;
11066;SDS011;29763;50.904;5.530;2023-02-28T17:58:42;4.10;;;3.53;;
11066;SDS011;29763;50.904;5.530;2023-02-28T18:01:08;5.17;;;3.60;;
11066;SDS011;29763;50.904;5.530;2023-02-28T18:03:35;4.07;;;3.73;;
11066;SDS011;29763;50.904;5.530;2023-02-28T18:06:01;6.30;;;5.63;;
11066;SDS011;29763;50.904;5.530;2023-02-28T18:08:29;5.37;;;4.87;;
11066;SDS011;29763;50.904;5.530;2023-02-28T18:10:56;6.63;;;4.13;;
11066;SDS011;29763;50.904;5.530;2023-02-28T18:13:22;6.67;;;5.50;;
11066;SDS011;29763;50.904;5.530;2023-02-28T18:15:50;5.10;;;4.60;;